Terminal Aerodrome Forecast
Issued by NWS

Home | Current Version | Previous Version | Text Only | Print | Product List | Glossary Off
Versions: 1 2 3 4 5 6 7 8 9 10 11 12 13

000
FTUS43 KGRB 190520
TAFMTW
TAF
KMTW 190520Z 1906/2006 36012G20KT P6SM SCT025 BKN150 WS010/03035KT
     FM191300 33013G20KT P6SM SKC
     FM192300 01005KT P6SM SKC=

USA.gov is the U.S. government's official web portal to all federal, state and local government web resources and services.